sensor_id;sensor_type;location;lat;lon;timestamp;pressure;altitude;pressure_sealevel;temperature;humidity
5062;BME280;2351;50.812;12.872;2023-04-21T00:00:59;97935.66;;;5.35;100.00
5062;BME280;2351;50.812;12.872;2023-04-21T00:03:31;97936.53;;;5.35;100.00
5062;BME280;2351;50.812;12.872;2023-04-21T00:06:07;97922.66;;;5.33;100.00
5062;BME280;2351;50.812;12.872;2023-04-21T00:08:39;97918.44;;;5.31;100.00
5062;BME280;2351;50.812;12.872;2023-04-21T00:11:11;97917.91;;;5.25;100.00
5062;BME280;2351;50.812;12.872;2023-04-21T00:13:44;97920.81;;;5.21;100.00
5062;BME280;2351;50.812;12.872;2023-04-21T00:16:17;97921.97;;;5.17;100.00
5062;BME280;2351;50.812;12.872;2023-04-21T00:18:49;97910.94;;;5.11;100.00
5062;BME280;2351;50.812;12.872;2023-04-21T00:21:20;97911.31;;;5.05;100.00
5062;BME280;2351;50.812;12.872;2023-04-21T00:23:52;97912.09;;;4.93;100.00
5062;BME280;2351;50.812;12.872;2023-04-21T00:26:24;97903.88;;;4.85;100.00
5062;BME280;2351;50.812;12.872;2023-04-21T00:28:56;97908.75;;;4.76;100.00
5062;BME280;2351;50.812;12.872;2023-04-21T00:31:29;97905.88;;;4.66;100.00
5062;BME280;2351;50.812;12.872;2023-04-21T00:34:00;97914.03;;;4.62;100.00
5062;BME280;2351;50.812;12.872;2023-04-21T00:36:32;97912.53;;;4.58;100.00
5062;BME280;2351;50.812;12.872;2023-04-21T00:39:04;97911.97;;;4.52;100.00
5062;BME280;2351;50.812;12.872;2023-04-21T00:41:36;97908.88;;;4.46;100.00
5062;BME280;2351;50.812;12.872;2023-04-21T00:44:09;97903.09;;;4.41;100.00
5062;BME280;2351;50.812;12.872;2023-04-21T00:46:42;97909.34;;;4.38;100.00
5062;BME280;2351;50.812;12.872;2023-04-21T00:49:14;97894.75;;;4.34;100.00
5062;BME280;2351;50.812;12.872;2023-04-21T00:51:45;97898.59;;;4.28;100.00
5062;BME280;2351;50.812;12.872;2023-04-21T00:54:18;97895.53;;;4.21;100.00
5062;BME280;2351;50.812;12.872;2023-04-21T00:56:50;97886.16;;;4.17;100.00
5062;BME280;2351;50.812;12.872;2023-04-21T00:59:22;97894.13;;;4.16;100.00
5062;BME280;2351;50.812;12.872;2023-04-21T01:01:55;97885.50;;;4.14;100.00
5062;BME280;2351;50.812;12.872;2023-04-21T01:04:27;97886.34;;;4.14;100.00
5062;BME280;2351;50.812;12.872;2023-04-21T01:07:05;97885.59;;;4.12;100.00
5062;BME280;2351;50.812;12.872;2023-04-21T01:09:39;97889.34;;;4.08;100.00
5062;BME280;2351;50.812;12.872;2023-04-21T01:12:11;97881.69;;;4.05;100.00
5062;BME280;2351;50.812;12.872;2023-04-21T01:14:43;97886.06;;;4.04;100.00
5062;BME280;2351;50.812;12.872;2023-04-21T01:17:16;97879.13;;;4.03;100.00
5062;BME280;2351;50.812;12.872;2023-04-21T01:19:49;97878.47;;;4.00;100.00
5062;BME280;2351;50.812;12.872;2023-04-21T01:22:23;97881.09;;;4.00;100.00
5062;BME280;2351;50.812;12.872;2023-04-21T01:24:56;97882.03;;;3.99;100.00
5062;BME280;2351;50.812;12.872;2023-04-21T01:27:27;97885.69;;;3.96;100.00
5062;BME280;2351;50.812;12.872;2023-04-21T01:29:59;97878.09;;;3.91;100.00
5062;BME280;2351;50.812;12.872;2023-04-21T01:32:31;97886.13;;;3.88;100.00
5062;BME280;2351;50.812;12.872;2023-04-21T01:35:03;97882.75;;;3.86;100.00
5062;BME280;2351;50.812;12.872;2023-04-21T01:37:37;97888.19;;;3.83;100.00
5062;BME280;2351;50.812;12.872;2023-04-21T01:40:09;97883.91;;;3.82;100.00
5062;BME280;2351;50.812;12.872;2023-04-21T01:42:42;97878.56;;;3.84;100.00
5062;BME280;2351;50.812;12.872;2023-04-21T01:45:13;97878.66;;;3.82;100.00
5062;BME280;2351;50.812;12.872;2023-04-21T01:47:45;97876.97;;;3.81;100.00
5062;BME280;2351;50.812;12.872;2023-04-21T01:50:17;97884.91;;;3.80;100.00
5062;BME280;2351;50.812;12.872;2023-04-21T01:52:50;97878.84;;;3.79;100.00
5062;BME280;2351;50.812;12.872;2023-04-21T01:55:21;97877.16;;;3.78;100.00
5062;BME280;2351;50.812;12.872;2023-04-21T01:57:53;97878.16;;;3.75;100.00
5062;BME280;2351;50.812;12.872;2023-04-21T02:00:27;97884.44;;;3.73;100.00
5062;BME280;2351;50.812;12.872;2023-04-21T02:02:58;97882.91;;;3.69;100.00
5062;BME280;2351;50.812;12.872;2023-04-21T02:05:30;97885.00;;;3.64;100.00
5062;BME280;2351;50.812;12.872;2023-04-21T02:08:03;97878.50;;;3.55;100.00
5062;BME280;2351;50.812;12.872;2023-04-21T02:10:35;97873.63;;;3.49;100.00
5062;BME280;2351;50.812;12.872;2023-04-21T02:13:07;97879.88;;;3.46;100.00
5062;BME280;2351;50.812;12.872;2023-04-21T02:15:39;97874.63;;;3.46;100.00
5062;BME280;2351;50.812;12.872;2023-04-21T02:18:10;97878.00;;;3.48;100.00
5062;BME280;2351;50.812;12.872;2023-04-21T02:20:42;97874.63;;;3.46;100.00
5062;BME280;2351;50.812;12.872;2023-04-21T02:23:15;97872.94;;;3.45;100.00
5062;BME280;2351;50.812;12.872;2023-04-21T02:25:47;97872.19;;;3.43;100.00
5062;BME280;2351;50.812;12.872;2023-04-21T02:28:19;97878.47;;;3.40;100.00
5062;BME280;2351;50.812;12.872;2023-04-21T02:30:50;97882.09;;;3.38;100.00
5062;BME280;2351;50.812;12.872;2023-04-21T02:33:22;97880.59;;;3.34;100.00
5062;BME280;2351;50.812;12.872;2023-04-21T02:35:54;97882.44;;;3.31;100.00
5062;BME280;2351;50.812;12.872;2023-04-21T02:38:27;97886.16;;;3.27;100.00
5062;BME280;2351;50.812;12.872;2023-04-21T02:40:59;97881.88;;;3.26;100.00
5062;BME280;2351;50.812;12.872;2023-04-21T02:43:31;97877.72;;;3.22;100.00
5062;BME280;2351;50.812;12.872;2023-04-21T02:46:05;97879.59;;;3.20;100.00
5062;BME280;2351;50.812;12.872;2023-04-21T02:48:36;97883.06;;;3.21;100.00
5062;BME280;2351;50.812;12.872;2023-04-21T02:51:10;97884.75;;;3.22;100.00
5062;BME280;2351;50.812;12.872;2023-04-21T02:53:44;97882.97;;;3.22;100.00
5062;BME280;2351;50.812;12.872;2023-04-21T02:56:15;97882.97;;;3.22;100.00
5062;BME280;2351;50.812;12.872;2023-04-21T02:58:47;97881.09;;;3.24;100.00
5062;BME280;2351;50.812;12.872;2023-04-21T03:01:19;97878.44;;;3.26;100.00
5062;BME280;2351;50.812;12.872;2023-04-21T03:03:52;97884.59;;;3.25;100.00
5062;BME280;2351;50.812;12.872;2023-04-21T03:06:24;97891.56;;;3.24;100.00
5062;BME280;2351;50.812;12.872;2023-04-21T03:08:58;97882.97;;;3.22;100.00
5062;BME280;2351;50.812;12.872;2023-04-21T03:11:29;97880.63;;;3.17;100.00
5062;BME280;2351;50.812;12.872;2023-04-21T03:14:01;97882.41;;;3.17;100.00
5062;BME280;2351;50.812;12.872;2023-04-21T03:16:33;97890.25;;;3.17;100.00
5062;BME280;2351;50.812;12.872;2023-04-21T03:19:04;97886.72;;;3.18;100.00
5062;BME280;2351;50.812;12.872;2023-04-21T03:21:36;97884.00;;;3.20;100.00
5062;BME280;2351;50.812;12.872;2023-04-21T03:24:10;97880.44;;;3.21;100.00
5062;BME280;2351;50.812;12.872;2023-04-21T03:26:42;97882.03;;;3.23;100.00
5062;BME280;2351;50.812;12.872;2023-04-21T03:29:14;97885.50;;;3.24;100.00
5062;BME280;2351;50.812;12.872;2023-04-21T03:31:46;97878.31;;;3.27;100.00
5062;BME280;2351;50.812;12.872;2023-04-21T03:34:17;97886.00;;;3.30;100.00
5062;BME280;2351;50.812;12.872;2023-04-21T03:36:49;97887.69;;;3.31;100.00
5062;BME280;2351;50.812;12.872;2023-04-21T03:39:22;97884.13;;;3.33;100.00
5062;BME280;2351;50.812;12.872;2023-04-21T03:41:54;97884.13;;;3.33;100.00
5062;BME280;2351;50.812;12.872;2023-04-21T03:44:26;97877.97;;;3.34;100.00
5062;BME280;2351;50.812;12.872;2023-04-21T03:46:59;97878.91;;;3.33;100.00
5062;BME280;2351;50.812;12.872;2023-04-21T03:49:33;97877.31;;;3.30;100.00
5062;BME280;2351;50.812;12.872;2023-04-21T03:52:05;97880.00;;;3.28;100.00
5062;BME280;2351;50.812;12.872;2023-04-21T03:54:38;97880.94;;;3.27;100.00
5062;BME280;2351;50.812;12.872;2023-04-21T03:57:09;97870.31;;;3.30;100.00
5062;BME280;2351;50.812;12.872;2023-04-21T03:59:42;97868.44;;;3.33;100.00
5062;BME280;2351;50.812;12.872;2023-04-21T04:02:13;97873.50;;;3.36;100.00
5062;BME280;2351;50.812;12.872;2023-04-21T04:04:45;97878.47;;;3.40;100.00
5062;BME280;2351;50.812;12.872;2023-04-21T04:07:17;97885.38;;;3.41;100.00
5062;BME280;2351;50.812;12.872;2023-04-21T04:09:50;97893.34;;;3.40;100.00
5062;BME280;2351;50.812;12.872;2023-04-21T04:12:22;97883.69;;;3.40;100.00
5062;BME280;2351;50.812;12.872;2023-04-21T04:14:53;97890.72;;;3.40;100.00
5062;BME280;2351;50.812;12.872;2023-04-21T04:17:25;97891.38;;;3.43;100.00
5062;BME280;2351;50.812;12.872;2023-04-21T04:19:57;97896.44;;;3.46;100.00
5062;BME280;2351;50.812;12.872;2023-04-21T04:22:28;97886.72;;;3.49;100.00
5062;BME280;2351;50.812;12.872;2023-04-21T04:25:02;97883.00;;;3.53;100.00
5062;BME280;2351;50.812;12.872;2023-04-21T04:27:34;97882.63;;;3.59;100.00
5062;BME280;2351;50.812;12.872;2023-04-21T04:30:07;97881.63;;;3.61;100.00
5062;BME280;2351;50.812;12.872;2023-04-21T04:32:39;97881.34;;;3.66;100.00
5062;BME280;2351;50.812;12.872;2023-04-21T04:35:11;97881.75;;;3.74;100.00
5062;BME280;2351;50.812;12.872;2023-04-21T04:37:43;97886.59;;;3.81;100.00
5062;BME280;2351;50.812;12.872;2023-04-21T04:40:17;97887.81;;;3.89;100.00
5062;BME280;2351;50.812;12.872;2023-04-21T04:42:49;97883.06;;;3.96;100.00
5062;BME280;2351;50.812;12.872;2023-04-21T04:45:22;97889.59;;;4.03;100.00
5062;BME280;2351;50.812;12.872;2023-04-21T04:47:55;97891.97;;;4.08;100.00
5062;BME280;2351;50.812;12.872;2023-04-21T04:50:27;97892.03;;;4.21;100.00
5062;BME280;2351;50.812;12.872;2023-04-21T04:52:58;97887.72;;;4.63;100.00
5062;BME280;2351;50.812;12.872;2023-04-21T04:55:31;97874.59;;;5.05;100.00
5062;BME280;2351;50.812;12.872;2023-04-21T04:58:03;97881.63;;;5.45;100.00
5062;BME280;2351;50.812;12.872;2023-04-21T05:00:36;97876.25;;;6.00;100.00
5062;BME280;2351;50.812;12.872;2023-04-21T05:03:08;97875.47;;;6.50;100.00
5062;BME280;2351;50.812;12.872;2023-04-21T05:05:39;97873.88;;;6.97;100.00
5062;BME280;2351;50.812;12.872;2023-04-21T05:08:11;97868.13;;;7.16;100.00
5062;BME280;2351;50.812;12.872;2023-04-21T05:10:44;97874.16;;;7.30;100.00
5062;BME280;2351;50.812;12.872;2023-04-21T05:13:16;97873.94;;;7.33;100.00
5062;BME280;2351;50.812;12.872;2023-04-21T05:15:48;97878.75;;;7.39;100.00
5062;BME280;2351;50.812;12.872;2023-04-21T05:18:19;97879.13;;;7.46;100.00
5062;BME280;2351;50.812;12.872;2023-04-21T05:20:51;97881.88;;;7.44;100.00
5062;BME280;2351;50.812;12.872;2023-04-21T05:23:23;97884.56;;;7.56;100.00
5062;BME280;2351;50.812;12.872;2023-04-21T05:25:56;97890.22;;;7.74;100.00
5062;BME280;2351;50.812;12.872;2023-04-21T05:28:27;97883.22;;;7.97;100.00
5062;BME280;2351;50.812;12.872;2023-04-21T05:31:01;97885.75;;;8.44;100.00
5062;BME280;2351;50.812;12.872;2023-04-21T05:33:32;97885.41;;;8.83;100.00
5062;BME280;2351;50.812;12.872;2023-04-21T05:36:06;97880.81;;;8.96;100.00
5062;BME280;2351;50.812;12.872;2023-04-21T05:38:38;97886.34;;;8.93;100.00
5062;BME280;2351;50.812;12.872;2023-04-21T05:41:11;97888.47;;;9.11;100.00
5062;BME280;2351;50.812;12.872;2023-04-21T05:43:43;97885.16;;;9.30;100.00
5062;BME280;2351;50.812;12.872;2023-04-21T05:46:14;97882.09;;;9.46;100.00
5062;BME280;2351;50.812;12.872;2023-04-21T05:48:46;97884.88;;;9.65;100.00
5062;BME280;2351;50.812;12.872;2023-04-21T05:51:18;97881.66;;;9.83;100.00
5062;BME280;2351;50.812;12.872;2023-04-21T05:53:49;97874.94;;;10.00;100.00
5062;BME280;2351;50.812;12.872;2023-04-21T05:56:22;97874.28;;;10.29;100.00
5062;BME280;2351;50.812;12.872;2023-04-21T05:58:54;97878.00;;;10.89;100.00
5062;BME280;2351;50.812;12.872;2023-04-21T06:01:26;97870.75;;;10.81;100.00
5062;BME280;2351;50.812;12.872;2023-04-21T06:03:58;97874.72;;;11.26;100.00
5062;BME280;2351;50.812;12.872;2023-04-21T06:06:29;97860.03;;;12.38;100.00
5062;BME280;2351;50.812;12.872;2023-04-21T06:09:01;97854.59;;;12.95;100.00
5062;BME280;2351;50.812;12.872;2023-04-21T06:11:34;97856.19;;;13.79;100.00
5062;BME280;2351;50.812;12.872;2023-04-21T06:14:06;97859.44;;;14.43;100.00
5062;BME280;2351;50.812;12.872;2023-04-21T06:16:38;97856.63;;;14.80;100.00
5062;BME280;2351;50.812;12.872;2023-04-21T06:19:09;97856.47;;;13.67;78.03
5062;BME280;2351;50.812;12.872;2023-04-21T06:21:41;97858.88;;;14.05;81.77
5062;BME280;2351;50.812;12.872;2023-04-21T06:24:13;97854.06;;;14.35;74.58
5062;BME280;2351;50.812;12.872;2023-04-21T06:26:46;97846.81;;;14.54;65.71
5062;BME280;2351;50.812;12.872;2023-04-21T06:29:18;97842.94;;;14.74;66.79
5062;BME280;2351;50.812;12.872;2023-04-21T06:31:50;97851.34;;;15.04;62.85
5062;BME280;2351;50.812;12.872;2023-04-21T06:34:21;97846.78;;;14.72;59.80
5062;BME280;2351;50.812;12.872;2023-04-21T06:36:53;97841.72;;;15.36;61.11
5062;BME280;2351;50.812;12.872;2023-04-21T06:39:25;97846.09;;;15.87;58.78
5062;BME280;2351;50.812;12.872;2023-04-21T06:41:58;97844.75;;;15.75;55.42
5062;BME280;2351;50.812;12.872;2023-04-21T06:44:30;97842.63;;;15.87;53.49
5062;BME280;2351;50.812;12.872;2023-04-21T06:47:02;97838.53;;;15.00;53.13
5062;BME280;2351;50.812;12.872;2023-04-21T06:49:34;97834.81;;;14.84;54.23
5062;BME280;2351;50.812;12.872;2023-04-21T06:52:06;97836.16;;;14.19;57.91
5062;BME280;2351;50.812;12.872;2023-04-21T06:54:38;97836.97;;;14.11;57.81
5062;BME280;2351;50.812;12.872;2023-04-21T06:57:11;97833.25;;;13.78;58.84
5062;BME280;2351;50.812;12.872;2023-04-21T06:59:44;97827.84;;;13.88;59.58
5062;BME280;2351;50.812;12.872;2023-04-21T07:02:16;97829.78;;;14.04;59.91
5062;BME280;2351;50.812;12.872;2023-04-21T07:04:47;97823.41;;;14.23;59.71
5062;BME280;2351;50.812;12.872;2023-04-21T07:07:19;97817.81;;;13.81;58.43
5062;BME280;2351;50.812;12.872;2023-04-21T07:09:51;97822.03;;;14.19;60.64
5062;BME280;2351;50.812;12.872;2023-04-21T07:12:24;97822.50;;;14.49;57.71
5062;BME280;2351;50.812;12.872;2023-04-21T07:14:56;97823.09;;;14.34;56.50
5062;BME280;2351;50.812;12.872;2023-04-21T07:17:27;97831.34;;;13.88;57.38
5062;BME280;2351;50.812;12.872;2023-04-21T07:19:59;97824.69;;;13.92;59.12
5062;BME280;2351;50.812;12.872;2023-04-21T07:22:31;97822.50;;;14.14;59.06
5062;BME280;2351;50.812;12.872;2023-04-21T07:25:04;97819.19;;;14.55;59.55
5062;BME280;2351;50.812;12.872;2023-04-21T07:27:38;97828.34;;;14.87;58.79
5062;BME280;2351;50.812;12.872;2023-04-21T07:30:10;97818.81;;;14.84;54.65
5062;BME280;2351;50.812;12.872;2023-04-21T07:32:42;97816.06;;;15.19;55.36
5062;BME280;2351;50.812;12.872;2023-04-21T07:35:14;97825.25;;;15.58;54.21
5062;BME280;2351;50.812;12.872;2023-04-21T07:37:46;97815.72;;;16.05;54.49
5062;BME280;2351;50.812;12.872;2023-04-21T07:40:17;97821.25;;;15.62;53.38
5062;BME280;2351;50.812;12.872;2023-04-21T07:42:50;97815.72;;;15.14;53.94
5062;BME280;2351;50.812;12.872;2023-04-21T07:45:23;97812.66;;;14.41;55.48
5062;BME280;2351;50.812;12.872;2023-04-21T07:47:55;97808.44;;;14.30;56.05
5062;BME280;2351;50.812;12.872;2023-04-21T07:50:27;97824.94;;;13.99;56.83
5062;BME280;2351;50.812;12.872;2023-04-21T07:52:58;97823.41;;;14.66;56.83
5062;BME280;2351;50.812;12.872;2023-04-21T07:55:31;97820.81;;;14.39;56.18
5062;BME280;2351;50.812;12.872;2023-04-21T07:58:05;97815.66;;;14.81;56.28
5062;BME280;2351;50.812;12.872;2023-04-21T08:00:36;97815.09;;;15.45;55.29
5062;BME280;2351;50.812;12.872;2023-04-21T08:03:08;97818.72;;;15.19;52.88
5062;BME280;2351;50.812;12.872;2023-04-21T08:05:40;97806.75;;;15.40;55.06
5062;BME280;2351;50.812;12.872;2023-04-21T08:08:11;97810.56;;;15.95;52.00
5062;BME280;2351;50.812;12.872;2023-04-21T08:10:43;97814.09;;;16.44;48.95
5062;BME280;2351;50.812;12.872;2023-04-21T08:13:17;97816.03;;;16.18;53.31
5062;BME280;2351;50.812;12.872;2023-04-21T08:15:50;97828.44;;;16.42;51.16
5062;BME280;2351;50.812;12.872;2023-04-21T08:18:22;97823.72;;;15.80;51.06
5062;BME280;2351;50.812;12.872;2023-04-21T08:20:53;97825.72;;;16.11;51.21
5062;BME280;2351;50.812;12.872;2023-04-21T08:23:27;97821.75;;;15.49;52.70
5062;BME280;2351;50.812;12.872;2023-04-21T08:26:01;97821.69;;;16.15;51.45
5062;BME280;2351;50.812;12.872;2023-04-21T08:28:34;97814.91;;;15.96;51.64
5062;BME280;2351;50.812;12.872;2023-04-21T08:31:06;97821.81;;;16.70;50.65
5062;BME280;2351;50.812;12.872;2023-04-21T08:33:38;97830.06;;;15.62;52.59
5062;BME280;2351;50.812;12.872;2023-04-21T08:36:09;97836.56;;;15.85;51.84
5062;BME280;2351;50.812;12.872;2023-04-21T08:38:42;97812.06;;;15.98;52.95
5062;BME280;2351;50.812;12.872;2023-04-21T08:41:14;97814.91;;;15.79;51.41
5062;BME280;2351;50.812;12.872;2023-04-21T08:43:47;97804.75;;;16.48;53.62
5062;BME280;2351;50.812;12.872;2023-04-21T08:46:19;97808.44;;;16.78;50.01
5062;BME280;2351;50.812;12.872;2023-04-21T08:48:51;97805.75;;;16.47;52.14
5062;BME280;2351;50.812;12.872;2023-04-21T08:51:23;97816.56;;;16.53;49.65
5062;BME280;2351;50.812;12.872;2023-04-21T08:53:57;97834.91;;;16.00;50.90
5062;BME280;2351;50.812;12.872;2023-04-21T08:56:29;97821.03;;;16.05;51.58
5062;BME280;2351;50.812;12.872;2023-04-21T08:59:03;97811.06;;;16.55;49.14
5062;BME280;2351;50.812;12.872;2023-04-21T09:02:08;97812.69;;;16.56;50.04
5062;BME280;2351;50.812;12.872;2023-04-21T09:04:41;97812.13;;;16.69;52.69
5062;BME280;2351;50.812;12.872;2023-04-21T09:07:30;97806.78;;;17.32;47.39
5062;BME280;2351;50.812;12.872;2023-04-21T09:10:04;97819.16;;;16.70;48.44
5062;BME280;2351;50.812;12.872;2023-04-21T09:12:38;97821.56;;;16.88;47.91
5062;BME280;2351;50.812;12.872;2023-04-21T09:15:11;97825.72;;;16.11;50.10
5062;BME280;2351;50.812;12.872;2023-04-21T09:17:44;97819.38;;;16.04;51.36
5062;BME280;2351;50.812;12.872;2023-04-21T09:20:17;97825.09;;;15.76;51.50
5062;BME280;2351;50.812;12.872;2023-04-21T09:22:50;97802.03;;;15.83;52.67
5062;BME280;2351;50.812;12.872;2023-04-21T09:25:22;97806.56;;;15.82;53.10
5062;BME280;2351;50.812;12.872;2023-04-21T09:27:54;97806.03;;;15.79;52.17
5062;BME280;2351;50.812;12.872;2023-04-21T09:30:27;97809.06;;;15.92;51.71
5062;BME280;2351;50.812;12.872;2023-04-21T09:32:59;97832.38;;;15.82;51.04
5062;BME280;2351;50.812;12.872;2023-04-21T09:35:32;97812.41;;;15.70;52.24
5062;BME280;2351;50.812;12.872;2023-04-21T09:38:09;97811.84;;;16.16;50.90
5062;BME280;2351;50.812;12.872;2023-04-21T09:40:41;97814.22;;;15.94;50.38
5062;BME280;2351;50.812;12.872;2023-04-21T09:43:13;97800.25;;;16.40;51.75
5062;BME280;2351;50.812;12.872;2023-04-21T09:45:46;97810.28;;;16.38;49.80
5062;BME280;2351;50.812;12.872;2023-04-21T09:48:18;97807.22;;;16.09;51.19
5062;BME280;2351;50.812;12.872;2023-04-21T09:50:52;97800.69;;;16.04;48.78
5062;BME280;2351;50.812;12.872;2023-04-21T09:53:27;97788.66;;;16.16;51.12
5062;BME280;2351;50.812;12.872;2023-04-21T09:56:01;97803.44;;;16.75;51.09
5062;BME280;2351;50.812;12.872;2023-04-21T09:58:39;97802.09;;;16.39;50.67
5062;BME280;2351;50.812;12.872;2023-04-21T10:01:14;97801.84;;;16.97;50.88
5062;BME280;2351;50.812;12.872;2023-04-21T10:03:47;97796.72;;;17.34;47.58
5062;BME280;2351;50.812;12.872;2023-04-21T10:06:19;97794.06;;;16.79;48.74
5062;BME280;2351;50.812;12.872;2023-04-21T10:08:51;97807.69;;;16.05;48.64
5062;BME280;2351;50.812;12.872;2023-04-21T10:11:26;97822.13;;;16.35;48.61
5062;BME280;2351;50.812;12.872;2023-04-21T10:13:57;97801.19;;;16.55;49.60
5062;BME280;2351;50.812;12.872;2023-04-21T10:16:34;97783.63;;;16.93;48.39
5062;BME280;2351;50.812;12.872;2023-04-21T10:19:22;97787.78;;;17.27;48.50
5062;BME280;2351;50.812;12.872;2023-04-21T10:21:55;97779.06;;;17.01;47.62
5062;BME280;2351;50.812;12.872;2023-04-21T10:24:27;97782.59;;;17.02;48.38
5062;BME280;2351;50.812;12.872;2023-04-21T10:26:59;97782.16;;;16.59;50.20
5062;BME280;2351;50.812;12.872;2023-04-21T10:29:33;97787.91;;;16.39;50.41
5062;BME280;2351;50.812;12.872;2023-04-21T10:32:06;97793.22;;;15.74;51.09
5062;BME280;2351;50.812;12.872;2023-04-21T10:34:37;97784.38;;;15.82;52.30
5062;BME280;2351;50.812;12.872;2023-04-21T10:37:15;97774.13;;;16.19;51.17
5062;BME280;2351;50.812;12.872;2023-04-21T10:39:53;97790.94;;;16.27;50.78
5062;BME280;2351;50.812;12.872;2023-04-21T10:42:28;97771.84;;;16.47;50.72
5062;BME280;2351;50.812;12.872;2023-04-21T10:45:08;97780.94;;;17.01;50.92
5062;BME280;2351;50.812;12.872;2023-04-21T10:47:44;97777.38;;;17.09;48.49
5062;BME280;2351;50.812;12.872;2023-04-21T10:50:20;97767.72;;;16.99;50.50
5062;BME280;2351;50.812;12.872;2023-04-21T10:52:55;97774.50;;;17.10;49.07
5062;BME280;2351;50.812;12.872;2023-04-21T10:55:28;97766.69;;;17.47;48.99
5062;BME280;2351;50.812;12.872;2023-04-21T10:58:01;97767.22;;;17.81;47.85
5062;BME280;2351;50.812;12.872;2023-04-21T11:00:33;97776.00;;;17.89;46.54
5062;BME280;2351;50.812;12.872;2023-04-21T11:03:08;97770.41;;;17.23;47.63
5062;BME280;2351;50.812;12.872;2023-04-21T11:05:40;97782.91;;;16.36;49.78
5062;BME280;2351;50.812;12.872;2023-04-21T11:08:13;97776.66;;;16.12;50.37
5062;BME280;2351;50.812;12.872;2023-04-21T11:10:53;97781.53;;;15.92;49.90
5062;BME280;2351;50.812;12.872;2023-04-21T11:13:26;97767.63;;;16.21;51.04
5062;BME280;2351;50.812;12.872;2023-04-21T11:16:04;97776.88;;;15.94;49.49
5062;BME280;2351;50.812;12.872;2023-04-21T11:18:39;97775.84;;;16.03;49.81
5062;BME280;2351;50.812;12.872;2023-04-21T11:21:13;97770.34;;;16.05;49.52
5062;BME280;2351;50.812;12.872;2023-04-21T11:23:51;97797.41;;;15.69;48.90
5062;BME280;2351;50.812;12.872;2023-04-21T11:26:31;97767.38;;;15.91;50.47
5062;BME280;2351;50.812;12.872;2023-04-21T11:29:04;97767.81;;;16.11;49.58
5062;BME280;2351;50.812;12.872;2023-04-21T11:31:38;97770.69;;;16.41;49.73
5062;BME280;2351;50.812;12.872;2023-04-21T11:34:11;97752.34;;;16.70;49.70
5062;BME280;2351;50.812;12.872;2023-04-21T11:36:45;97761.44;;;16.61;46.87
5062;BME280;2351;50.812;12.872;2023-04-21T11:39:18;97749.22;;;16.66;48.10
5062;BME280;2351;50.812;12.872;2023-04-21T11:41:50;97750.63;;;16.54;47.32
5062;BME280;2351;50.812;12.872;2023-04-21T11:44:32;97761.56;;;16.36;47.36
5062;BME280;2351;50.812;12.872;2023-04-21T11:47:11;97756.41;;;16.66;48.09
5062;BME280;2351;50.812;12.872;2023-04-21T11:49:46;97760.28;;;16.86;46.35
5062;BME280;2351;50.812;12.872;2023-04-21T11:52:22;97733.50;;;16.95;45.67
5062;BME280;2351;50.812;12.872;2023-04-21T11:54:56;97751.09;;;17.12;44.46
5062;BME280;2351;50.812;12.872;2023-04-21T11:57:29;97746.91;;;17.56;43.72
5062;BME280;2351;50.812;12.872;2023-04-21T12:00:04;97744.50;;;17.76;41.00
5062;BME280;2351;50.812;12.872;2023-04-21T12:02:37;97752.16;;;17.50;40.71
5062;BME280;2351;50.812;12.872;2023-04-21T12:05:11;97740.31;;;17.44;43.00
5062;BME280;2351;50.812;12.872;2023-04-21T12:07:45;97748.31;;;17.82;42.41
5062;BME280;2351;50.812;12.872;2023-04-21T12:10:18;97739.16;;;17.76;40.88
5062;BME280;2351;50.812;12.872;2023-04-21T12:12:50;97735.22;;;17.72;40.66
5062;BME280;2351;50.812;12.872;2023-04-21T12:15:22;97741.66;;;17.78;41.48
5062;BME280;2351;50.812;12.872;2023-04-21T12:17:54;97730.41;;;17.83;40.24
5062;BME280;2351;50.812;12.872;2023-04-21T12:20:28;97730.56;;;17.66;40.98
5062;BME280;2351;50.812;12.872;2023-04-21T12:23:00;97728.56;;;17.83;42.43
5062;BME280;2351;50.812;12.872;2023-04-21T12:25:31;97732.25;;;18.12;42.73
5062;BME280;2351;50.812;12.872;2023-04-21T12:28:07;97728.03;;;18.55;43.01
5062;BME280;2351;50.812;12.872;2023-04-21T12:30:39;97724.66;;;19.04;42.42
5062;BME280;2351;50.812;12.872;2023-04-21T12:33:11;97725.34;;;19.35;39.93
5062;BME280;2351;50.812;12.872;2023-04-21T12:35:44;97730.69;;;18.70;36.57
5062;BME280;2351;50.812;12.872;2023-04-21T12:38:16;97726.47;;;18.09;37.85
5062;BME280;2351;50.812;12.872;2023-04-21T12:40:48;97724.44;;;18.11;38.19
5062;BME280;2351;50.812;12.872;2023-04-21T12:43:19;97720.97;;;18.32;38.67
5062;BME280;2351;50.812;12.872;2023-04-21T12:45:52;97719.66;;;18.43;40.46
5062;BME280;2351;50.812;12.872;2023-04-21T12:48:24;97715.63;;;18.69;39.36
5062;BME280;2351;50.812;12.872;2023-04-21T12:50:57;97724.34;;;18.56;39.79
5062;BME280;2351;50.812;12.872;2023-04-21T12:53:29;97719.97;;;18.70;40.37
5062;BME280;2351;50.812;12.872;2023-04-21T12:56:00;97719.47;;;18.96;39.85
5062;BME280;2351;50.812;12.872;2023-04-21T12:58:32;97715.56;;;18.84;38.17
5062;BME280;2351;50.812;12.872;2023-04-21T13:01:04;97707.09;;;18.80;39.44
5062;BME280;2351;50.812;12.872;2023-04-21T13:03:36;97710.84;;;19.01;39.54
5062;BME280;2351;50.812;12.872;2023-04-21T13:06:10;97713.72;;;18.11;39.66
5062;BME280;2351;50.812;12.872;2023-04-21T13:08:42;97720.09;;;17.41;41.93
5062;BME280;2351;50.812;12.872;2023-04-21T13:11:14;97715.22;;;17.30;41.85
5062;BME280;2351;50.812;12.872;2023-04-21T13:13:45;97714.75;;;17.41;42.81
5062;BME280;2351;50.812;12.872;2023-04-21T13:16:17;97707.19;;;17.30;42.65
5062;BME280;2351;50.812;12.872;2023-04-21T13:18:49;97703.63;;;17.53;42.81
5062;BME280;2351;50.812;12.872;2023-04-21T13:21:22;97705.75;;;17.57;41.63
5062;BME280;2351;50.812;12.872;2023-04-21T13:23:54;97712.28;;;17.55;40.97
5062;BME280;2351;50.812;12.872;2023-04-21T13:26:26;97697.34;;;17.45;41.18
5062;BME280;2351;50.812;12.872;2023-04-21T13:28:58;97698.59;;;17.35;41.63
5062;BME280;2351;50.812;12.872;2023-04-21T13:31:30;97706.63;;;16.96;42.37
5062;BME280;2351;50.812;12.872;2023-04-21T13:34:02;97710.16;;;17.12;41.96
5062;BME280;2351;50.812;12.872;2023-04-21T13:36:35;97697.63;;;16.89;42.49
5062;BME280;2351;50.812;12.872;2023-04-21T13:39:08;97692.47;;;16.88;42.78